createdAt,value
2022-07-25T00:00:32.694Z,7.18
2022-07-25T00:02:34.928Z,6.05
2022-07-25T00:04:36.730Z,7.18
2022-07-25T00:06:39.485Z,9.88
2022-07-25T00:08:41.434Z,9.27
2022-07-25T00:10:43.196Z,6.95
2022-07-25T00:12:45.549Z,8.52
2022-07-25T00:14:47.964Z,7.43
2022-07-25T00:16:49.728Z,8.27
2022-07-25T00:18:51.491Z,7.10
2022-07-25T00:20:53.739Z,8.43
2022-07-25T00:22:55.481Z,10.93
2022-07-25T00:24:57.266Z,8.20
2022-07-25T00:26:59.236Z,7.88
2022-07-25T00:29:01.219Z,6.78
2022-07-25T00:31:02.975Z,7.85
2022-07-25T00:33:05.514Z,9.50
2022-07-25T00:35:07.654Z,8.30
2022-07-25T00:37:09.397Z,6.88
2022-07-25T00:39:11.418Z,7.13
2022-07-25T00:41:13.168Z,5.72
2022-07-25T00:43:14.979Z,5.65
2022-07-25T00:45:16.875Z,7.60
2022-07-25T00:47:18.659Z,7.68
2022-07-25T00:49:20.733Z,9.63
2022-07-25T00:51:23.108Z,7.47
2022-07-25T00:53:25.906Z,9.98
2022-07-25T00:55:29.194Z,7.30
2022-07-25T00:57:31.231Z,6.72
2022-07-25T00:59:33.091Z,7.32
2022-07-25T01:01:35.397Z,7.10
2022-07-25T01:03:37.244Z,5.57
2022-07-25T01:05:39.032Z,7.90
2022-07-25T01:07:41.082Z,6.25
2022-07-25T01:09:43.752Z,6.63
2022-07-25T01:11:45.516Z,7.55
2022-07-25T01:13:47.279Z,6.65
2022-07-25T01:15:49.229Z,7.63
2022-07-25T01:17:51.422Z,7.25
2022-07-25T01:19:53.198Z,11.43
2022-07-25T01:21:55.216Z,8.85
2022-07-25T01:23:57.062Z,9.68
2022-07-25T01:25:59.093Z,8.38
2022-07-25T01:28:02.131Z,8.38
2022-07-25T01:30:06.756Z,8.43
2022-07-25T01:32:08.649Z,9.25
2022-07-25T01:34:10.531Z,10.35
2022-07-25T01:36:12.553Z,7.90
2022-07-25T01:38:15.442Z,9.30
2022-07-25T01:40:17.285Z,7.38
2022-07-25T01:42:19.059Z,6.95
2022-07-25T01:44:20.857Z,5.75
2022-07-25T01:46:22.897Z,12.85
2022-07-25T01:48:24.823Z,6.95
2022-07-25T01:50:27.005Z,7.65
2022-07-25T01:52:29.480Z,6.57
2022-07-25T01:54:31.211Z,7.10
2022-07-25T01:56:34.205Z,7.95
2022-07-25T01:58:36.093Z,9.70
2022-07-25T02:00:38.088Z,8.00
2022-07-25T02:02:41.490Z,10.13
2022-07-25T02:04:43.345Z,9.02
2022-07-25T02:06:45.160Z,9.10
2022-07-25T02:08:47.285Z,7.63
2022-07-25T02:10:49.879Z,6.85
2022-07-25T02:12:51.652Z,7.07
2022-07-25T02:14:53.609Z,7.43
2022-07-25T02:16:55.526Z,8.00
2022-07-25T02:18:57.387Z,9.35
2022-07-25T02:20:59.142Z,8.60
2022-07-25T02:23:00.909Z,6.13
2022-07-25T02:25:02.693Z,5.63
2022-07-25T02:27:05.565Z,8.23
2022-07-25T02:29:07.507Z,6.47
2022-07-25T02:31:10.121Z,6.70
2022-07-25T02:33:12.104Z,9.52
2022-07-25T02:35:14.234Z,7.88
2022-07-25T02:37:16.089Z,5.93
2022-07-25T02:39:17.924Z,4.70
2022-07-25T02:41:20.068Z,7.75
2022-07-25T02:43:21.786Z,5.95
2022-07-25T02:45:23.709Z,6.78
2022-07-25T02:47:25.651Z,9.68
2022-07-25T02:49:27.401Z,6.75
2022-07-25T02:51:29.191Z,7.10
2022-07-25T02:53:54.752Z,6.78
2022-07-25T02:55:52.804Z,6.70
2022-07-25T02:57:55.016Z,8.60
2022-07-25T02:59:56.993Z,7.35
2022-07-25T03:01:58.705Z,10.63
2022-07-25T03:04:00.680Z,10.02
2022-07-25T03:06:02.830Z,8.55
2022-07-25T03:08:04.991Z,11.85
2022-07-25T03:10:11.005Z,16.33
2022-07-25T03:12:13.731Z,10.68
2022-07-25T03:14:15.442Z,13.07
2022-07-25T03:16:17.616Z,11.73
2022-07-25T03:18:19.553Z,14.00
2022-07-25T03:20:21.312Z,14.43
2022-07-25T03:22:26.434Z,14.98
2022-07-25T03:24:28.423Z,12.70
2022-07-25T03:26:30.226Z,14.32
2022-07-25T03:28:32.312Z,13.68
2022-07-25T03:30:34.214Z,14.00
2022-07-25T03:32:35.921Z,14.95
2022-07-25T03:34:37.998Z,31.67
2022-07-25T03:36:39.842Z,41.67
2022-07-25T03:38:41.580Z,26.95
2022-07-25T03:40:43.445Z,19.00
2022-07-25T03:42:45.250Z,14.85
2022-07-25T03:44:47.000Z,11.27
2022-07-25T03:46:48.931Z,12.52
2022-07-25T03:48:50.971Z,11.45
2022-07-25T03:50:52.775Z,10.70
2022-07-25T03:52:54.695Z,10.70
2022-07-25T03:54:56.619Z,11.45
2022-07-25T03:56:58.334Z,23.35
2022-07-25T03:59:00.041Z,10.43
2022-07-25T04:01:01.981Z,10.77
2022-07-25T04:03:06.038Z,10.07
2022-07-25T04:05:08.633Z,9.73
2022-07-25T04:07:10.504Z,10.57
2022-07-25T04:09:13.540Z,10.35
2022-07-25T04:11:15.458Z,10.77
2022-07-25T04:13:17.572Z,10.93
2022-07-25T04:15:19.439Z,10.70
2022-07-25T04:17:21.188Z,12.88
2022-07-25T04:19:23.256Z,13.55
2022-07-25T04:21:28.632Z,13.27
2022-07-25T04:23:30.758Z,13.98
2022-07-25T04:25:32.716Z,11.00
2022-07-25T04:27:34.451Z,13.10
2022-07-25T04:29:36.220Z,14.25
2022-07-25T04:31:37.972Z,12.95
2022-07-25T04:33:40.679Z,13.40
2022-07-25T04:35:42.750Z,13.90
2022-07-25T04:37:44.802Z,13.77
2022-07-25T04:39:46.535Z,15.00
2022-07-25T04:41:48.357Z,18.23
2022-07-25T04:43:50.080Z,17.48
2022-07-25T04:45:51.912Z,14.50
2022-07-25T04:47:53.753Z,16.58
2022-07-25T04:49:55.483Z,18.15
2022-07-25T04:51:57.330Z,14.68
2022-07-25T04:53:59.070Z,15.82
2022-07-25T04:56:00.790Z,13.52
2022-07-25T04:58:02.902Z,13.48
2022-07-25T05:00:06.307Z,12.35
2022-07-25T05:02:08.105Z,14.70
2022-07-25T05:04:10.234Z,14.90
2022-07-25T05:06:12.086Z,13.63
2022-07-25T05:08:15.570Z,13.18
2022-07-25T05:10:17.823Z,12.27
2022-07-25T05:12:19.820Z,14.50
2022-07-25T05:14:21.540Z,11.57
2022-07-25T05:16:23.307Z,11.70
2022-07-25T05:18:25.109Z,12.93
2022-07-25T05:20:27.775Z,12.90
2022-07-25T05:22:29.573Z,10.90
2022-07-25T05:24:35.873Z,14.07
2022-07-25T05:26:37.604Z,11.90
2022-07-25T05:28:39.413Z,12.80
2022-07-25T05:30:41.148Z,12.00
2022-07-25T05:32:43.142Z,14.35
2022-07-25T05:34:45.324Z,12.00
2022-07-25T05:36:47.596Z,13.40
2022-07-25T05:38:49.420Z,12.95
2022-07-25T05:40:51.323Z,11.77
2022-07-25T05:42:53.053Z,10.70
2022-07-25T05:44:55.008Z,13.80
2022-07-25T05:46:57.028Z,9.82
2022-07-25T05:48:58.938Z,12.52
2022-07-25T05:51:00.720Z,9.73
2022-07-25T05:53:02.433Z,9.75
2022-07-25T05:55:04.437Z,9.07
2022-07-25T05:57:06.934Z,8.98
2022-07-25T05:59:08.705Z,7.93
2022-07-25T06:01:14.548Z,9.15
2022-07-25T06:03:16.562Z,9.48
2022-07-25T06:05:18.555Z,7.97
2022-07-25T06:07:20.315Z,7.07
2022-07-25T06:09:23.277Z,7.95
2022-07-25T06:11:25.241Z,8.70
2022-07-25T06:13:28.194Z,5.33
2022-07-25T06:15:30.198Z,5.70
2022-07-25T06:17:32.606Z,4.85
2022-07-25T06:19:34.707Z,4.43
2022-07-25T06:21:36.804Z,4.25
2022-07-25T06:23:38.805Z,3.88
2022-07-25T06:25:40.694Z,3.30
2022-07-25T06:27:43.062Z,3.53
2022-07-25T06:29:44.775Z,3.45
2022-07-25T06:31:47.449Z,4.18
2022-07-25T06:33:49.437Z,4.00
2022-07-25T06:35:51.390Z,6.78
2022-07-25T06:37:53.266Z,5.43
2022-07-25T06:39:55.289Z,5.28
2022-07-25T06:41:57.216Z,3.75
2022-07-25T06:43:58.947Z,6.38
2022-07-25T06:46:00.763Z,3.92
2022-07-25T06:48:02.527Z,4.63
2022-07-25T06:50:05.979Z,4.88
2022-07-25T06:52:09.799Z,3.65
2022-07-25T06:54:11.591Z,3.55
2022-07-25T06:56:17.490Z,2.83
2022-07-25T06:58:19.891Z,4.60
2022-07-25T07:00:26.124Z,3.38
2022-07-25T07:02:27.869Z,3.25
2022-07-25T07:04:29.949Z,3.53
2022-07-25T07:06:31.770Z,2.72
2022-07-25T07:08:34.110Z,3.40
2022-07-25T07:10:35.935Z,2.67
2022-07-25T07:12:37.858Z,4.82
2022-07-25T07:14:41.427Z,2.67
2022-07-25T07:16:43.273Z,2.75
2022-07-25T07:18:49.106Z,4.18
2022-07-25T07:20:51.465Z,4.15
2022-07-25T07:22:53.219Z,4.70
2022-07-25T07:24:55.011Z,3.75
2022-07-25T07:26:57.376Z,6.17
2022-07-25T07:28:59.607Z,3.22
2022-07-25T07:31:17.627Z,3.88
2022-07-25T07:33:19.710Z,3.10
2022-07-25T07:35:21.600Z,2.78
2022-07-25T07:37:23.374Z,3.60
2022-07-25T07:39:25.166Z,2.72
2022-07-25T07:41:26.966Z,3.22
2022-07-25T07:43:30.422Z,4.53
2022-07-25T07:45:32.817Z,3.03
2022-07-25T07:47:34.708Z,4.73
2022-07-25T07:49:37.124Z,3.47
2022-07-25T07:51:39.028Z,5.40
2022-07-25T07:53:40.783Z,4.18
2022-07-25T07:55:42.694Z,2.63
2022-07-25T07:57:44.454Z,2.40
2022-07-25T07:59:46.242Z,5.30
2022-07-25T08:01:48.183Z,2.45
2022-07-25T08:03:49.937Z,4.38
2022-07-25T08:05:51.838Z,4.07
2022-07-25T08:07:54.626Z,2.67
2022-07-25T08:09:56.362Z,3.25
2022-07-25T08:11:58.504Z,3.05
2022-07-25T08:14:00.355Z,4.15
2022-07-25T08:16:02.740Z,3.15
2022-07-25T08:18:04.776Z,3.10
2022-07-25T08:20:37.491Z,3.22
2022-07-25T08:22:42.895Z,2.33
2022-07-25T08:24:44.749Z,2.95
2022-07-25T08:26:46.572Z,2.72
2022-07-25T08:28:52.555Z,3.22
2022-07-25T08:31:02.270Z,4.53
2022-07-25T08:33:06.678Z,5.97
2022-07-25T08:35:11.521Z,5.60
2022-07-25T08:37:13.406Z,3.75
2022-07-25T08:39:15.209Z,5.40
2022-07-25T08:41:17.032Z,3.67
2022-07-25T08:43:26.894Z,3.10
2022-07-25T08:45:29.263Z,4.35
2022-07-25T08:47:31.917Z,5.00
2022-07-25T08:49:35.332Z,3.88
2022-07-25T08:51:37.704Z,3.97
2022-07-25T08:53:40.178Z,4.30
2022-07-25T08:55:42.157Z,5.40
2022-07-25T08:57:44.024Z,3.20
2022-07-25T08:59:45.814Z,7.57
2022-07-25T09:01:47.822Z,5.72
2022-07-25T09:03:49.842Z,6.30
2022-07-25T09:05:51.677Z,3.22
2022-07-25T09:07:55.053Z,4.88
2022-07-25T09:11:59.017Z,3.90
2022-07-25T09:14:07.156Z,6.43
2022-07-25T09:16:10.287Z,4.82
2022-07-25T09:18:14.521Z,3.78
2022-07-25T09:20:18.588Z,5.22
2022-07-25T09:22:20.621Z,3.28
2022-07-25T09:24:22.361Z,4.25
2022-07-25T09:26:24.298Z,4.82
2022-07-25T09:28:26.395Z,3.22
2022-07-25T09:30:28.136Z,3.13
2022-07-25T09:32:30.089Z,2.45
2022-07-25T09:34:38.163Z,5.47
2022-07-25T09:36:52.362Z,6.80
2022-07-25T09:39:01.672Z,4.63
2022-07-25T09:41:04.037Z,4.35
2022-07-25T09:43:06.125Z,8.10
2022-07-25T09:45:13.856Z,2.28
2022-07-25T09:47:15.855Z,3.90
2022-07-25T09:49:17.671Z,2.83
2022-07-25T09:51:19.833Z,3.08
2022-07-25T09:53:21.800Z,6.50
2022-07-25T09:55:24.363Z,2.58
2022-07-25T09:57:27.605Z,3.40
2022-07-25T09:59:29.619Z,4.53
2022-07-25T10:01:37.994Z,3.15
2022-07-25T10:03:51.130Z,3.88
2022-07-25T10:06:02.485Z,5.30
2022-07-25T10:08:07.761Z,5.38
2022-07-25T10:10:20.925Z,5.05
2022-07-25T10:12:23.964Z,3.30
2022-07-25T10:14:25.785Z,6.22
2022-07-25T10:16:28.022Z,3.13
2022-07-25T10:18:30.834Z,3.90
2022-07-25T10:20:32.568Z,2.70
2022-07-25T10:22:55.824Z,4.65
2022-07-25T10:25:12.577Z,3.38
2022-07-25T10:27:21.859Z,4.43
2022-07-25T10:29:34.124Z,3.67
2022-07-25T10:31:38.863Z,3.72
2022-07-25T10:33:43.728Z,3.85
2022-07-25T10:35:46.036Z,3.47
2022-07-25T10:37:51.357Z,2.92
2022-07-25T10:39:53.467Z,3.25
2022-07-25T10:41:59.093Z,5.03
2022-07-25T10:44:01.655Z,4.78
2022-07-25T10:46:13.638Z,3.72
2022-07-25T10:48:23.626Z,4.80
2022-07-25T10:50:53.329Z,4.75
2022-07-25T10:52:58.813Z,2.80
2022-07-25T10:55:01.511Z,3.35
2022-07-25T10:57:04.704Z,3.97
2022-07-25T10:59:06.728Z,3.00
2022-07-25T11:01:08.956Z,2.97
2022-07-25T11:03:14.686Z,3.55
2022-07-25T11:05:19.810Z,3.72
2022-07-25T11:07:21.714Z,3.58
2022-07-25T11:09:28.578Z,4.68
2022-07-25T11:11:38.347Z,3.55
2022-07-25T11:13:42.024Z,5.50
2022-07-25T11:15:44.666Z,2.67
2022-07-25T11:17:51.812Z,2.90
2022-07-25T11:20:01.618Z,3.25
2022-07-25T11:22:03.458Z,3.25
2022-07-25T11:24:05.358Z,3.35
2022-07-25T11:26:13.725Z,3.08
2022-07-25T11:28:15.655Z,5.65
2022-07-25T11:30:19.277Z,3.38
2022-07-25T11:32:21.197Z,5.22
2022-07-25T11:34:29.561Z,3.10
2022-07-25T11:36:31.569Z,4.00
2022-07-25T11:38:34.556Z,5.50
2022-07-25T11:40:43.374Z,2.75
2022-07-25T11:42:56.861Z,3.50
2022-07-25T11:44:59.200Z,3.08
2022-07-25T11:47:01.580Z,2.63
2022-07-25T11:49:05.931Z,3.20
2022-07-25T11:51:12.641Z,3.28
2022-07-25T11:53:18.294Z,5.07
2022-07-25T11:55:29.237Z,2.65
2022-07-25T11:57:35.929Z,4.85
2022-07-25T11:59:43.819Z,4.35
2022-07-25T12:01:45.611Z,2.38
2022-07-25T12:03:47.810Z,1.80
2022-07-25T12:05:50.231Z,2.17
2022-07-25T12:07:54.739Z,3.10
2022-07-25T12:09:57.680Z,3.78
2022-07-25T12:12:04.298Z,4.00
2022-07-25T12:14:06.746Z,3.47
2022-07-25T12:16:08.832Z,2.87
2022-07-25T12:18:10.597Z,3.83
2022-07-25T12:20:26.910Z,2.65
2022-07-25T12:22:28.738Z,4.03
2022-07-25T12:24:30.440Z,8.27
2022-07-25T12:26:32.160Z,5.45
2022-07-25T12:28:34.250Z,3.10
2022-07-25T12:30:36.233Z,4.32
2022-07-25T12:34:40.984Z,4.32
2022-07-25T12:36:42.898Z,3.30
2022-07-25T12:38:44.648Z,3.50
2022-07-25T12:40:46.542Z,3.22
2022-07-25T12:42:48.674Z,3.13
2022-07-25T12:44:50.481Z,2.60
2022-07-25T12:46:52.730Z,4.93
2022-07-25T12:48:54.792Z,3.20
2022-07-25T12:50:56.576Z,2.70
2022-07-25T12:52:58.570Z,2.30
2022-07-25T12:55:00.386Z,3.75
2022-07-25T12:57:02.131Z,4.00
2022-07-25T12:59:04.098Z,4.15
2022-07-25T13:01:06.401Z,3.17
2022-07-25T13:03:08.220Z,3.97
2022-07-25T13:05:10.355Z,3.78
2022-07-25T13:07:13.305Z,3.58
2022-07-25T13:09:15.070Z,2.55
2022-07-25T13:11:17.038Z,5.32
2022-07-25T13:13:18.744Z,3.88
2022-07-25T13:15:20.499Z,3.65
2022-07-25T13:17:27.256Z,3.85
2022-07-25T13:19:29.744Z,5.75
2022-07-25T13:21:31.550Z,7.53
2022-07-25T13:23:33.497Z,2.22
2022-07-25T13:25:35.433Z,3.45
2022-07-25T13:27:37.771Z,3.03
2022-07-25T13:29:39.623Z,4.47
2022-07-25T13:31:42.284Z,2.75
2022-07-25T13:33:44.479Z,5.03
2022-07-25T13:35:46.425Z,3.53
2022-07-25T13:37:48.433Z,3.78
2022-07-25T13:39:50.472Z,2.35
2022-07-25T13:41:52.273Z,2.75
2022-07-25T13:43:54.746Z,2.70
2022-07-25T13:45:56.624Z,3.67
2022-07-25T13:48:26.809Z,3.58
2022-07-25T13:50:20.379Z,2.30
2022-07-25T13:52:22.165Z,3.00
2022-07-25T13:54:24.000Z,3.10
2022-07-25T13:56:25.819Z,3.92
2022-07-25T13:58:28.230Z,3.13
2022-07-25T14:00:30.151Z,4.57
2022-07-25T14:02:32.344Z,3.55
2022-07-25T14:04:34.114Z,3.65
2022-07-25T14:06:36.201Z,3.80
2022-07-25T14:08:42.303Z,5.28
2022-07-25T14:10:44.062Z,2.80
2022-07-25T14:12:46.236Z,7.90
2022-07-25T14:14:48.353Z,3.55
2022-07-25T14:16:50.264Z,3.70
2022-07-25T14:18:52.316Z,11.10
2022-07-25T14:20:54.573Z,3.17
2022-07-25T14:22:56.422Z,5.43
2022-07-25T14:24:58.779Z,3.60
2022-07-25T14:27:00.706Z,3.78
2022-07-25T14:29:02.627Z,3.10
2022-07-25T14:31:04.883Z,2.20
2022-07-25T14:33:06.724Z,2.42
2022-07-25T14:35:08.867Z,3.25
2022-07-25T14:37:11.070Z,4.07
2022-07-25T14:39:13.236Z,2.85
2022-07-25T14:41:15.182Z,2.38
2022-07-25T14:43:19.214Z,3.33
2022-07-25T14:45:21.122Z,2.90
2022-07-25T14:47:23.409Z,2.63
2022-07-25T14:49:29.357Z,2.47
2022-07-25T14:51:31.292Z,2.17
2022-07-25T14:53:34.089Z,2.30
2022-07-25T14:55:37.367Z,4.25
2022-07-25T14:59:40.881Z,3.53
2022-07-25T15:01:45.681Z,2.55
2022-07-25T15:03:47.471Z,2.55
2022-07-25T15:05:49.217Z,2.38
2022-07-25T15:07:51.520Z,3.33
2022-07-25T15:09:53.338Z,5.50
2022-07-25T15:11:55.175Z,2.97
2022-07-25T15:13:57.289Z,3.05
2022-07-25T15:15:59.672Z,3.30
2022-07-25T15:18:01.453Z,13.50
2022-07-25T15:20:03.806Z,2.50
2022-07-25T15:22:05.884Z,2.83
2022-07-25T15:24:07.755Z,4.55
2022-07-25T15:26:09.701Z,4.47
2022-07-25T15:28:11.709Z,2.67
2022-07-25T15:30:13.639Z,3.40
2022-07-25T15:32:15.592Z,2.67
2022-07-25T15:34:17.492Z,2.78
2022-07-25T15:36:19.761Z,2.75
2022-07-25T15:38:21.743Z,3.10
2022-07-25T15:40:23.571Z,3.05
2022-07-25T15:42:29.021Z,3.75
2022-07-25T15:44:31.412Z,3.40
2022-07-25T15:46:33.386Z,3.10
2022-07-25T15:48:35.229Z,3.08
2022-07-25T15:50:42.509Z,3.03
2022-07-25T15:52:44.387Z,2.85
2022-07-25T15:54:46.138Z,3.05
2022-07-25T15:56:48.286Z,2.63
2022-07-25T15:58:50.268Z,3.53
2022-07-25T16:00:52.059Z,4.07
2022-07-25T16:02:54.106Z,3.45
2022-07-25T16:04:55.952Z,3.83
2022-07-25T16:06:58.846Z,3.67
2022-07-25T16:09:00.934Z,3.67
2022-07-25T16:11:03.573Z,4.35
2022-07-25T16:13:05.901Z,24.08
2022-07-25T16:15:09.631Z,39.17
2022-07-25T16:17:11.430Z,33.05
2022-07-25T16:19:13.202Z,4.05
2022-07-25T16:21:15.123Z,7.57
2022-07-25T16:23:19.357Z,3.22
2022-07-25T16:25:22.275Z,2.70
2022-07-25T16:27:24.127Z,6.95
2022-07-25T16:29:27.806Z,6.22
2022-07-25T16:31:29.933Z,5.75
2022-07-25T16:33:32.138Z,20.10
2022-07-25T16:35:34.160Z,7.68
2022-07-25T16:37:35.950Z,12.10
2022-07-25T16:39:37.779Z,7.22
2022-07-25T16:41:39.555Z,6.65
2022-07-25T16:43:41.289Z,3.17
2022-07-25T16:45:45.633Z,5.55
2022-07-25T16:47:47.455Z,4.97
2022-07-25T16:49:49.782Z,3.60
2022-07-25T16:51:51.866Z,7.90
2022-07-25T16:53:53.996Z,3.28
2022-07-25T16:55:55.913Z,4.10
2022-07-25T16:57:58.878Z,6.40
2022-07-25T17:00:00.758Z,3.75
2022-07-25T17:02:02.776Z,3.97
2022-07-25T17:04:05.328Z,4.43
2022-07-25T17:06:07.621Z,8.20
2022-07-25T17:08:09.381Z,5.22
2022-07-25T17:10:11.293Z,4.55
2022-07-25T17:12:13.032Z,5.40
2022-07-25T17:14:15.022Z,3.67
2022-07-25T17:16:18.617Z,6.30
2022-07-25T17:18:23.670Z,4.70
2022-07-25T17:20:28.346Z,3.80
2022-07-25T17:22:30.241Z,4.85
2022-07-25T17:24:32.350Z,5.57
2022-07-25T17:26:35.373Z,4.05
2022-07-25T17:28:38.445Z,3.78
2022-07-25T17:30:43.184Z,3.28
2022-07-25T17:32:45.063Z,3.95
2022-07-25T17:34:47.017Z,4.25
2022-07-25T17:36:48.816Z,4.50
2022-07-25T17:38:50.881Z,5.35
2022-07-25T17:40:53.396Z,4.65
2022-07-25T17:42:56.956Z,5.50
2022-07-25T17:44:58.842Z,6.35
2022-07-25T17:47:00.809Z,8.80
2022-07-25T17:49:05.071Z,5.23
2022-07-25T17:51:08.147Z,6.93
2022-07-25T17:53:09.920Z,5.40
2022-07-25T17:55:12.030Z,4.28
2022-07-25T17:57:14.604Z,7.40
2022-07-25T17:59:17.137Z,5.05
2022-07-25T18:01:19.295Z,8.15
2022-07-25T18:03:21.207Z,4.78
2022-07-25T18:05:23.154Z,4.68
2022-07-25T18:07:25.016Z,5.25
2022-07-25T18:09:26.813Z,4.80
2022-07-25T18:11:28.726Z,3.30
2022-07-25T18:13:30.823Z,5.18
2022-07-25T18:15:32.630Z,8.20
2022-07-25T18:17:36.085Z,4.93
2022-07-25T18:21:40.036Z,4.60
2022-07-25T18:23:42.843Z,4.32
2022-07-25T18:25:45.224Z,9.02
2022-07-25T18:27:48.578Z,4.00
2022-07-25T18:29:50.660Z,10.13
2022-07-25T18:31:52.679Z,4.00
2022-07-25T18:33:54.512Z,4.28
2022-07-25T18:35:56.569Z,5.15
2022-07-25T18:37:58.665Z,4.68
2022-07-25T18:40:05.995Z,3.25
2022-07-25T18:42:08.165Z,8.45
2022-07-25T18:44:10.827Z,5.43
2022-07-25T18:46:13.295Z,4.47
2022-07-25T18:50:19.301Z,4.15
2022-07-25T18:52:22.355Z,4.10
2022-07-25T18:54:24.262Z,5.53
2022-07-25T18:56:26.049Z,3.45
2022-07-25T18:58:27.914Z,6.22
2022-07-25T19:00:31.334Z,5.53
2022-07-25T19:02:33.074Z,7.03
2022-07-25T19:04:34.988Z,6.18
2022-07-25T19:06:38.036Z,6.32
2022-07-25T19:08:39.955Z,6.75
2022-07-25T19:10:41.865Z,7.65
2022-07-25T19:12:47.689Z,14.82
2022-07-25T19:14:50.619Z,10.88
2022-07-25T19:16:53.716Z,8.00
2022-07-25T19:19:01.153Z,5.47
2022-07-25T19:21:03.484Z,7.57
2022-07-25T19:23:05.455Z,7.95
2022-07-25T19:25:07.741Z,8.20
2022-07-25T19:27:10.181Z,6.30
2022-07-25T19:29:12.626Z,8.13
2022-07-25T19:31:15.002Z,6.32
2022-07-25T19:33:16.812Z,6.82
2022-07-25T19:35:24.046Z,5.80
2022-07-25T19:37:27.510Z,6.20
2022-07-25T19:39:29.372Z,7.18
2022-07-25T19:41:31.226Z,6.28
2022-07-25T19:43:35.045Z,7.22
2022-07-25T19:45:36.995Z,6.70
2022-07-25T19:47:38.941Z,6.50
2022-07-25T19:49:41.362Z,11.60
2022-07-25T19:51:43.182Z,7.15
2022-07-25T19:53:44.982Z,5.75
2022-07-25T19:55:49.150Z,6.13
2022-07-25T19:57:50.892Z,7.47
2022-07-25T19:59:52.691Z,8.75
2022-07-25T20:01:54.742Z,5.90
2022-07-25T20:03:56.565Z,5.72
2022-07-25T20:05:58.305Z,8.27
2022-07-25T20:08:00.264Z,8.30
2022-07-25T20:10:02.066Z,9.32
2022-07-25T20:12:04.092Z,7.43
2022-07-25T20:14:06.321Z,5.53
2022-07-25T20:16:08.637Z,5.70
2022-07-25T20:18:12.177Z,7.43
2022-07-25T20:20:16.802Z,4.55
2022-07-25T20:22:19.639Z,7.45
2022-07-25T20:24:21.964Z,5.38
2022-07-25T20:26:23.929Z,6.72
2022-07-25T20:28:25.722Z,10.13
2022-07-25T20:30:31.608Z,6.95
2022-07-25T20:32:37.947Z,7.32
2022-07-25T20:34:40.302Z,7.35
2022-07-25T20:36:42.809Z,7.05
2022-07-25T20:38:44.714Z,6.50
2022-07-25T20:40:49.788Z,9.82
2022-07-25T20:42:51.881Z,9.48
2022-07-25T20:44:53.684Z,8.63
2022-07-25T20:46:55.435Z,8.00
2022-07-25T20:48:58.743Z,8.38
2022-07-25T20:51:01.242Z,8.98
2022-07-25T20:53:03.848Z,6.93
2022-07-25T20:55:06.646Z,8.25
2022-07-25T20:57:09.156Z,6.00
2022-07-25T20:59:11.716Z,5.85
2022-07-25T21:01:13.633Z,8.10
2022-07-25T21:03:15.635Z,5.97
2022-07-25T21:05:17.494Z,5.88
2022-07-25T21:07:19.284Z,9.88
2022-07-25T21:09:21.297Z,9.13
2022-07-25T21:11:23.256Z,11.38
2022-07-25T21:13:25.456Z,8.65
2022-07-25T21:15:33.268Z,5.65
2022-07-25T21:17:35.235Z,7.25
2022-07-25T21:19:37.021Z,11.23
2022-07-25T21:21:38.894Z,10.25
2022-07-25T21:23:41.277Z,6.07
2022-07-25T21:25:43.137Z,6.57
2022-07-25T21:27:45.011Z,9.65
2022-07-25T21:29:46.885Z,8.30
2022-07-25T21:31:48.729Z,8.02
2022-07-25T21:33:50.645Z,7.35
2022-07-25T21:35:53.729Z,7.53
2022-07-25T21:37:55.712Z,8.60
2022-07-25T21:39:57.453Z,6.50
2022-07-25T21:41:59.317Z,5.82
2022-07-25T21:46:04.777Z,8.32
2022-07-25T21:48:06.693Z,11.20
2022-07-25T21:50:09.126Z,7.80
2022-07-25T21:52:13.862Z,6.65
2022-07-25T21:54:16.090Z,6.03
2022-07-25T21:56:18.292Z,6.10
2022-07-25T21:58:20.070Z,7.40
2022-07-25T22:00:22.678Z,8.15
2022-07-25T22:04:44.196Z,8.13
2022-07-25T22:06:46.035Z,10.70
2022-07-25T22:08:47.860Z,6.20
2022-07-25T22:10:50.370Z,5.50
2022-07-25T22:12:52.184Z,6.25
2022-07-25T22:14:54.106Z,10.77
2022-07-25T22:16:55.976Z,5.95
2022-07-25T22:18:57.958Z,5.93
2022-07-25T22:20:59.867Z,8.60
2022-07-25T22:23:02.038Z,9.95
2022-07-25T22:25:04.378Z,8.80
2022-07-25T22:27:06.411Z,7.85
2022-07-25T22:29:08.821Z,9.30
2022-07-25T22:31:10.814Z,7.82
2022-07-25T22:33:12.683Z,7.57
2022-07-25T22:35:14.997Z,9.18
2022-07-25T22:37:16.826Z,7.03
2022-07-25T22:39:19.088Z,6.60
2022-07-25T22:41:21.000Z,8.32
2022-07-25T22:43:22.955Z,8.00
2022-07-25T22:45:24.857Z,6.75
2022-07-25T22:47:26.827Z,5.93
2022-07-25T22:49:28.651Z,6.65
2022-07-25T22:51:30.513Z,6.57
2022-07-25T22:53:32.511Z,5.85
2022-07-25T22:55:34.400Z,9.45
2022-07-25T22:57:37.558Z,8.30
2022-07-25T22:59:39.677Z,6.63
2022-07-25T23:01:41.460Z,7.32
2022-07-25T23:03:43.452Z,6.22
2022-07-25T23:05:45.552Z,8.57
2022-07-25T23:07:47.346Z,9.27
2022-07-25T23:09:49.374Z,10.15
2022-07-25T23:11:51.399Z,8.88
2022-07-25T23:13:53.490Z,6.40
2022-07-25T23:15:55.591Z,7.47
2022-07-25T23:17:57.613Z,8.63
2022-07-25T23:19:59.638Z,6.93
2022-07-25T23:22:01.861Z,8.02
2022-07-25T23:24:04.043Z,6.00
2022-07-25T23:26:05.867Z,9.55
2022-07-25T23:28:07.722Z,10.70
2022-07-25T23:30:10.019Z,5.50
2022-07-25T23:32:12.008Z,7.75
2022-07-25T23:34:13.928Z,7.95
2022-07-25T23:36:15.800Z,9.68
2022-07-25T23:38:17.524Z,8.77
2022-07-25T23:40:19.396Z,9.32
2022-07-25T23:42:21.375Z,10.85
2022-07-25T23:46:43.384Z,9.85
2022-07-25T23:48:46.612Z,9.52
2022-07-25T23:50:50.281Z,8.05
2022-07-25T23:52:52.827Z,8.40
2022-07-25T23:54:54.928Z,9.45
2022-07-25T23:56:56.690Z,7.07
2022-07-25T23:58:58.549Z,7.65
